Time;durP1;ratioP1;P1;durP2;ratioP2;P2;SDS_P1;SDS_P2;PMS_P1;PMS_P2;Temp;Humidity;BMP_temperature;BMP_pressure;BME280_temperature;BME280_humidity;BME280_pressure;Samples;Min_cycle;Max_cycle;Signal;HPM_P1;HPM_P2
2022/11/26 00:00:42;;;;;;;31.43;19.90;;;9.00;99.90;;;;;;5072922;28;20675;-48
2022/11/26 00:03:10;;;;;;;36.40;22.57;;;8.90;99.90;;;;;;5073793;28;20437;-49
2022/11/26 00:05:36;;;;;;;32.53;21.63;;;9.10;99.90;;;;;;5073882;28;20437;-48
2022/11/26 00:08:03;;;;;;;31.83;22.77;;;9.30;99.90;;;;;;5073101;28;20430;-49
2022/11/26 00:10:35;;;;;;;33.83;20.93;;;9.00;99.90;;;;;;5072707;28;20485;-49
2022/11/26 00:13:02;;;;;;;36.23;20.63;;;9.10;99.90;;;;;;5073375;28;20452;-49
2022/11/26 00:15:31;;;;;;;29.60;21.43;;;9.50;99.90;;;;;;5072958;28;20404;-50
2022/11/26 00:17:58;;;;;;;30.43;21.03;;;8.70;99.90;;;;;;5073021;28;20447;-49
2022/11/26 00:20:29;;;;;;;31.70;21.73;;;8.40;99.90;;;;;;5072299;28;20432;-48
2022/11/26 00:23:00;;;;;;;39.80;23.53;;;9.10;99.90;;;;;;5072876;28;20441;-49
2022/11/26 00:25:31;;;;;;;29.60;20.40;;;9.20;99.90;;;;;;5072525;28;20441;-48
2022/11/26 00:27:58;;;;;;;34.70;22.03;;;9.10;99.90;;;;;;5072631;28;20430;-50
2022/11/26 00:30:28;;;;;;;40.17;22.57;;;9.20;99.90;;;;;;5071988;28;20426;-48
2022/11/26 00:32:55;;;;;;;39.30;25.07;;;9.10;99.90;;;;;;5072673;28;20438;-48
2022/11/26 00:35:23;;;;;;;36.10;22.93;;;9.10;99.90;;;;;;5073137;28;20668;-49
2022/11/26 00:37:52;;;;;;;38.60;22.67;;;9.20;99.90;;;;;;5054704;28;20500;-51
2022/11/26 00:40:25;;;;;;;38.30;23.13;;;8.60;99.90;;;;;;5071641;28;20801;-49
2022/11/26 00:42:53;;;;;;;33.97;22.03;;;9.10;99.90;;;;;;5072539;28;20444;-50
2022/11/26 00:45:22;;;;;;;37.23;22.90;;;8.90;99.90;;;;;;5072593;28;20449;-49
2022/11/26 00:47:51;;;;;;;41.93;23.57;;;9.20;99.90;;;;;;5072447;28;20437;-49
2022/11/26 00:50:21;;;;;;;32.93;21.93;;;9.00;99.90;;;;;;5071580;28;20426;-51
2022/11/26 00:52:51;;;;;;;33.40;21.73;;;9.00;99.90;;;;;;5072469;28;20843;-50
2022/11/26 00:55:26;;;;;;;38.87;24.53;;;8.90;99.90;;;;;;5072112;28;20429;-49
2022/11/26 00:57:53;;;;;;;37.10;23.23;;;9.00;99.90;;;;;;5072518;28;20484;-49
2022/11/26 01:00:21;;;;;;;40.23;23.50;;;8.50;99.90;;;;;;5071163;28;20437;-49
2022/11/26 01:02:50;;;;;;;46.20;24.50;;;9.00;99.90;;;;;;5071946;28;20436;-50
2022/11/26 01:05:17;;;;;;;36.97;23.87;;;9.20;99.90;;;;;;5072234;28;20430;-50
2022/11/26 01:07:44;;;;;;;42.23;23.37;;;9.10;99.90;;;;;;5072145;28;20430;-49
2022/11/26 01:10:17;;;;;;;37.63;23.30;;;8.70;99.90;;;;;;5071540;28;20429;-49
2022/11/26 01:12:44;;;;;;;39.97;24.23;;;8.80;99.90;;;;;;5072265;28;20442;-49
2022/11/26 01:15:12;;;;;;;39.23;24.57;;;9.20;99.90;;;;;;5072214;28;20431;-49
2022/11/26 01:17:38;;;;;;;44.53;24.77;;;9.00;99.90;;;;;;5071956;28;21019;-51
2022/11/26 01:20:21;;;;;;;45.90;24.80;;;8.50;99.90;;;;;;5070958;28;20430;-49
2022/11/26 01:22:48;;;;;;;49.00;23.80;;;8.90;99.90;;;;;;5072141;28;20832;-48
2022/11/26 01:25:15;;;;;;;48.80;24.60;;;9.00;99.90;;;;;;5072035;28;20457;-52
2022/11/26 01:27:42;;;;;;;39.97;25.70;;;9.30;99.90;;;;;;5071986;28;20434;-49
2022/11/26 01:30:16;;;;;;;40.87;25.40;;;9.20;99.90;;;;;;5072301;28;20784;-52
2022/11/26 01:32:42;;;;;;;40.63;24.57;;;9.30;99.90;;;;;;5071714;28;20433;-49
2022/11/26 01:35:11;;;;;;;48.60;25.23;;;9.40;99.90;;;;;;5053933;28;20946;-48
2022/11/26 01:37:38;;;;;;;34.63;25.30;;;9.10;99.90;;;;;;5071136;28;20830;-48
2022/11/26 01:40:22;;;;;;;46.60;24.20;;;9.10;99.90;;;;;;5071203;28;20430;-47
2022/11/26 01:42:53;;;;;;;41.13;25.13;;;9.20;99.90;;;;;;5056465;28;20396;-48
2022/11/26 01:45:22;;;;;;;41.50;23.93;;;9.30;99.90;;;;;;5071593;28;20412;-49
2022/11/26 01:47:49;;;;;;;51.27;27.07;;;9.30;99.90;;;;;;5053535;28;20412;-47
2022/11/26 01:50:56;;;;;;;48.43;26.27;;;9.00;99.90;;;;;;5070980;28;20412;-49
2022/11/26 01:53:33;;;;;;;46.23;24.03;;;9.10;99.90;;;;;;4990225;28;20500;-49
2022/11/26 01:56:03;;;;;;;40.50;21.77;;;9.10;99.90;;;;;;5063709;28;20457;-50
2022/11/26 01:58:33;;;;;;;41.83;23.53;;;9.20;99.90;;;;;;5070927;28;20477;-49
2022/11/26 02:01:00;;;;;;;36.47;22.50;;;9.20;99.90;;;;;;5071099;28;20984;-48
2022/11/26 02:03:29;;;;;;;47.00;22.67;;;9.30;99.90;;;;;;5071501;28;20437;-48
2022/11/26 02:06:01;;;;;;;45.73;23.10;;;9.60;99.90;;;;;;5071592;28;20437;-51
2022/11/26 02:08:30;;;;;;;38.50;23.03;;;9.40;99.90;;;;;;5071036;28;20425;-50
2022/11/26 02:10:57;;;;;;;41.17;21.93;;;9.00;99.90;;;;;;5071309;28;20817;-49
2022/11/26 02:13:25;;;;;;;50.37;23.93;;;9.20;99.90;;;;;;5053597;28;20425;-50
2022/11/26 02:15:59;;;;;;;40.20;21.60;;;9.10;99.90;;;;;;5071158;28;20537;-48
2022/11/26 02:18:31;;;;;;;41.70;22.57;;;9.50;99.90;;;;;;5070775;28;20576;-51
2022/11/26 02:21:02;;;;;;;39.73;21.67;;;9.40;99.90;;;;;;5071619;28;20529;-48
2022/11/26 02:24:09;;;;;;;43.50;21.47;;;8.90;99.90;;;;;;5071387;28;20433;-49
2022/11/26 02:27:00;;;;;;;36.53;20.93;;;9.00;99.90;;;;;;5071445;28;20404;-48
2022/11/26 02:29:48;;;;;;;42.50;21.30;;;8.70;99.90;;;;;;5070712;28;20442;-49
2022/11/26 02:32:19;;;;;;;42.87;21.33;;;9.00;99.90;;;;;;5071316;28;20449;-48
2022/11/26 02:34:54;;;;;;;42.00;22.37;;;9.10;99.90;;;;;;5071408;28;20456;-48
2022/11/26 02:37:27;;;;;;;46.80;22.87;;;9.20;99.90;;;;;;5071222;28;20473;-48
2022/11/26 02:39:54;;;;;;;45.70;22.83;;;8.80;99.90;;;;;;5070489;28;20436;-49
2022/11/26 02:42:26;;;;;;;48.30;25.90;;;9.10;99.90;;;;;;5071199;28;20480;-50
2022/11/26 02:44:57;;;;;;;48.40;21.87;;;9.20;99.90;;;;;;5053360;28;20446;-52
2022/11/26 02:47:26;;;;;;;40.97;21.23;;;9.70;99.90;;;;;;5071207;28;20430;-48
2022/11/26 02:49:55;;;;;;;47.60;23.27;;;9.20;99.90;;;;;;5073195;28;20422;-51
2022/11/26 02:52:23;;;;;;;50.03;24.43;;;9.40;99.90;;;;;;5074701;28;20953;-49
2022/11/26 02:54:52;;;;;;;49.90;23.67;;;9.20;99.90;;;;;;5075006;28;20433;-49
2022/11/26 02:57:20;;;;;;;51.77;24.50;;;9.20;99.90;;;;;;5074910;28;20495;-49
2022/11/26 02:59:47;;;;;;;53.00;25.20;;;9.50;99.90;;;;;;5074032;28;20433;-50
2022/11/26 03:02:21;;;;;;;59.60;27.03;;;9.30;99.90;;;;;;5074520;28;20465;-48
2022/11/26 03:04:52;;;;;;;54.37;27.30;;;9.50;99.90;;;;;;5074631;28;20428;-48
2022/11/26 03:07:20;;;;;;;64.63;28.50;;;9.30;99.90;;;;;;5074637;28;20452;-49
2022/11/26 03:09:51;;;;;;;59.93;25.83;;;9.20;99.90;;;;;;5073764;28;20434;-48
2022/11/26 03:12:18;;;;;;;65.50;28.07;;;9.20;99.90;;;;;;5074265;28;20457;-49
2022/11/26 03:14:44;;;;;;;54.73;28.03;;;9.40;99.90;;;;;;5074473;28;20934;-48
2022/11/26 03:17:11;;;;;;;71.83;30.80;;;9.70;99.90;;;;;;5074197;28;20437;-47
2022/11/26 03:19:39;;;;;;;70.87;31.00;;;9.00;99.90;;;;;;5073459;28;20944;-49
2022/11/26 03:22:06;;;;;;;54.63;27.47;;;9.30;99.90;;;;;;5074492;28;20962;-49
2022/11/26 03:24:33;;;;;;;60.70;25.93;;;9.20;99.90;;;;;;5074202;28;20404;-48
2022/11/26 03:26:59;;;;;;;50.33;25.97;;;8.90;99.90;;;;;;5074247;28;20798;-51
2022/11/26 03:29:26;;;;;;;52.10;26.43;;;9.90;99.90;;;;;;5055137;28;20444;-48
2022/11/26 03:31:53;;;;;;;52.93;26.20;;;9.50;99.90;;;;;;5074081;28;20461;-48
2022/11/26 03:34:19;;;;;;;46.90;24.00;;;9.80;99.90;;;;;;5074190;28;20409;-51
2022/11/26 03:36:47;;;;;;;55.87;26.70;;;9.40;99.90;;;;;;5073874;28;20433;-49
2022/11/26 03:39:14;;;;;;;44.00;25.27;;;9.30;99.90;;;;;;5073216;28;20572;-48
2022/11/26 03:41:42;;;;;;;52.00;28.40;;;9.20;99.90;;;;;;5073697;28;20472;-48
2022/11/26 03:44:10;;;;;;;58.57;26.40;;;9.70;99.90;;;;;;5073822;28;20442;-48
2022/11/26 03:46:36;;;;;;;57.23;25.23;;;9.30;99.90;;;;;;5073754;28;20438;-48
2022/11/26 03:49:03;;;;;;;46.27;28.37;;;9.90;99.90;;;;;;5055031;28;20442;-47
2022/11/26 03:51:29;;;;;;;50.47;28.50;;;9.30;99.90;;;;;;5073846;28;20458;-48
2022/11/26 03:53:57;;;;;;;58.00;29.10;;;9.40;99.90;;;;;;5073663;28;20768;-49
2022/11/26 03:56:24;;;;;;;56.33;27.73;;;9.20;99.90;;;;;;5073509;28;20425;-51
2022/11/26 03:58:51;;;;;;;64.30;31.87;;;9.20;99.90;;;;;;5072791;28;20484;-48
2022/11/26 04:01:17;;;;;;;71.67;30.40;;;9.20;99.90;;;;;;5072551;28;20457;-48
2022/11/26 04:03:44;;;;;;;77.97;34.10;;;9.40;99.90;;;;;;5073563;28;20429;-48
2022/11/26 04:06:10;;;;;;;77.00;31.30;;;9.20;99.90;;;;;;5073458;28;20430;-49
2022/11/26 04:08:37;;;;;;;71.37;30.50;;;9.30;99.90;;;;;;5072527;28;20775;-48
2022/11/26 04:11:05;;;;;;;73.00;34.37;;;9.50;99.90;;;;;;5073068;28;20453;-49
2022/11/26 04:13:32;;;;;;;85.43;35.10;;;9.30;99.90;;;;;;5073334;28;20794;-48
2022/11/26 04:15:58;;;;;;;64.13;31.60;;;9.70;99.90;;;;;;5055275;28;20412;-49
2022/11/26 04:18:25;;;;;;;71.07;30.40;;;9.60;99.90;;;;;;5072726;28;20561;-50
2022/11/26 04:20:51;;;;;;;79.47;33.97;;;9.50;99.90;;;;;;5075011;28;20442;-48
2022/11/26 04:23:18;;;;;;;85.30;32.00;;;9.30;99.90;;;;;;5073193;28;20438;-49
2022/11/26 04:25:45;;;;;;;77.13;32.40;;;9.30;99.90;;;;;;5073042;28;20426;-49
2022/11/26 04:28:14;;;;;;;68.40;31.20;;;9.30;99.90;;;;;;5073123;28;20430;-48
2022/11/26 04:30:40;;;;;;;70.97;30.80;;;9.40;99.90;;;;;;5072075;28;20445;-48
2022/11/26 04:33:07;;;;;;;71.93;31.67;;;9.30;99.90;;;;;;5072766;28;20451;-50
2022/11/26 04:35:33;;;;;;;68.80;30.63;;;9.50;99.90;;;;;;5072806;28;20426;-49
2022/11/26 04:38:00;;;;;;;81.80;33.30;;;9.30;99.90;;;;;;5072506;28;20452;-48
2022/11/26 04:42:56;;;;;;;73.57;31.50;;;9.70;99.90;;;;;;5050793;28;20485;-46
2022/11/26 04:45:23;;;;;;;63.20;32.10;;;9.40;99.90;;;;;;5052630;28;20430;-46
2022/11/26 04:47:50;;;;;;;62.63;30.93;;;9.20;99.90;;;;;;5034677;28;20563;-48
2022/11/26 04:50:17;;;;;;;63.37;30.10;;;10.00;99.90;;;;;;5052066;28;20447;-47
2022/11/26 04:52:47;;;;;;;63.80;30.03;;;9.50;99.90;;;;;;5036007;28;20470;-48
2022/11/26 04:55:14;;;;;;;65.03;29.47;;;9.70;99.90;;;;;;5054607;28;20437;-48
2022/11/26 04:57:40;;;;;;;83.20;32.93;;;9.70;99.90;;;;;;5054708;28;20434;-48
2022/11/26 05:00:08;;;;;;;62.03;29.00;;;9.20;99.90;;;;;;5053998;28;20442;-46
2022/11/26 05:02:36;;;;;;;52.93;29.27;;;9.50;99.90;;;;;;5054434;28;20557;-48
2022/11/26 05:05:03;;;;;;;65.67;30.83;;;10.00;99.90;;;;;;5035935;28;20810;-47
2022/11/26 05:07:29;;;;;;;66.73;29.70;;;9.60;99.90;;;;;;5034695;28;20438;-47
2022/11/26 05:09:56;;;;;;;57.93;27.90;;;9.70;99.90;;;;;;5051725;28;20450;-48
2022/11/26 05:12:22;;;;;;;52.87;26.90;;;9.80;99.90;;;;;;5052166;28;20529;-47
2022/11/26 05:14:49;;;;;;;60.83;28.77;;;9.70;99.90;;;;;;5052264;28;20749;-47
2022/11/26 05:17:16;;;;;;;54.87;27.83;;;9.50;99.90;;;;;;5052135;28;20435;-46
2022/11/26 05:19:44;;;;;;;50.07;26.60;;;9.50;99.90;;;;;;5051115;28;20452;-46
2022/11/26 05:22:10;;;;;;;55.30;28.47;;;9.60;99.90;;;;;;5051783;28;20457;-48
2022/11/26 05:24:37;;;;;;;60.67;28.03;;;9.30;99.90;;;;;;5034207;28;20451;-47
2022/11/26 05:27:04;;;;;;;48.07;28.20;;;9.50;99.90;;;;;;5051882;28;20439;-46
2022/11/26 05:29:32;;;;;;;49.53;28.33;;;9.40;99.90;;;;;;5051155;28;20441;-47
2022/11/26 05:31:58;;;;;;;47.60;26.70;;;9.50;99.90;;;;;;5051776;28;20453;-48
2022/11/26 05:34:25;;;;;;;42.00;24.77;;;10.30;99.90;;;;;;5051750;28;20431;-46
2022/11/26 05:36:53;;;;;;;41.60;24.13;;;9.60;99.90;;;;;;5051732;28;20525;-47
2022/11/26 05:39:20;;;;;;;44.87;25.33;;;9.20;99.90;;;;;;5051019;28;20474;-46
2022/11/26 05:41:46;;;;;;;45.10;24.90;;;9.50;99.90;;;;;;5051583;28;20469;-46
2022/11/26 05:44:13;;;;;;;40.10;24.23;;;10.00;99.90;;;;;;5051674;28;20814;-46
2022/11/26 05:46:42;;;;;;;45.00;25.30;;;9.80;99.90;;;;;;5051816;28;20406;-46
2022/11/26 05:49:09;;;;;;;39.93;22.23;;;10.00;99.90;;;;;;5051050;28;20417;-46
2022/11/26 05:51:35;;;;;;;36.63;22.43;;;9.30;99.90;;;;;;5051646;28;20426;-46
2022/11/26 05:54:03;;;;;;;37.47;22.17;;;9.70;99.90;;;;;;5033745;28;20953;-47
2022/11/26 05:56:30;;;;;;;36.47;23.53;;;9.60;99.90;;;;;;5051752;28;20433;-47
2022/11/26 05:58:57;;;;;;;40.67;22.40;;;9.70;99.90;;;;;;5050928;28;20470;-46
2022/11/26 06:01:23;;;;;;;39.63;21.97;;;9.70;99.90;;;;;;5051760;28;20447;-47
2022/11/26 06:03:50;;;;;;;35.23;20.43;;;9.20;99.90;;;;;;5051377;28;20405;-47
2022/11/26 06:06:17;;;;;;;39.40;21.30;;;9.30;99.90;;;;;;5051290;28;20923;-47
2022/11/26 06:08:43;;;;;;;43.53;22.40;;;10.00;99.90;;;;;;5050496;28;20430;-47
2022/11/26 06:11:12;;;;;;;31.03;19.63;;;9.20;99.90;;;;;;5051641;28;20458;-47
2022/11/26 06:13:39;;;;;;;41.10;20.80;;;9.90;99.90;;;;;;5051291;28;20989;-47
2022/11/26 06:16:06;;;;;;;36.57;21.67;;;9.50;99.90;;;;;;5051314;28;20405;-48
2022/11/26 06:18:33;;;;;;;35.93;21.37;;;9.60;99.90;;;;;;5050386;28;20804;-48
2022/11/26 06:21:00;;;;;;;35.57;20.57;;;9.20;99.90;;;;;;5051154;28;20919;-49
2022/11/26 06:23:26;;;;;;;35.70;20.90;;;9.60;99.90;;;;;;5033999;28;20546;-46
2022/11/26 06:25:54;;;;;;;32.43;21.60;;;9.40;99.90;;;;;;5055289;28;20434;-46
2022/11/26 06:28:22;;;;;;;41.33;19.27;;;9.70;99.90;;;;;;5054836;28;20419;-48
2022/11/26 06:30:49;;;;;;;35.30;19.73;;;9.50;99.90;;;;;;5036734;28;20470;-47
2022/11/26 06:33:15;;;;;;;37.23;20.90;;;9.20;99.90;;;;;;5055036;28;20430;-46
2022/11/26 06:35:42;;;;;;;35.20;20.23;;;9.40;99.90;;;;;;5054867;28;20434;-47
2022/11/26 06:38:09;;;;;;;33.10;19.50;;;9.60;99.90;;;;;;5055020;28;20454;-47
2022/11/26 06:40:35;;;;;;;35.20;19.77;;;9.40;99.90;;;;;;5054068;28;20470;-47
2022/11/26 06:43:02;;;;;;;34.73;18.47;;;9.60;99.90;;;;;;5036956;28;20482;-46
2022/11/26 06:45:30;;;;;;;37.90;18.23;;;9.30;99.90;;;;;;5054728;28;20442;-46
2022/11/26 06:47:57;;;;;;;41.37;19.77;;;9.00;99.90;;;;;;5054819;28;20434;-46
2022/11/26 06:50:23;;;;;;;33.03;18.17;;;9.30;99.90;;;;;;5054146;28;20923;-47
2022/11/26 06:52:51;;;;;;;44.70;19.17;;;9.50;99.90;;;;;;5054913;28;20647;-47
2022/11/26 06:55:18;;;;;;;34.00;18.77;;;9.40;99.90;;;;;;5056505;28;20434;-47
2022/11/26 06:57:48;;;;;;;45.60;20.60;;;9.60;99.90;;;;;;5056158;28;20923;-47
2022/11/26 07:00:15;;;;;;;37.00;19.17;;;9.80;99.90;;;;;;5053742;28;20477;-47
2022/11/26 07:02:43;;;;;;;36.60;19.57;;;9.50;99.90;;;;;;5054580;28;20457;-48
2022/11/26 07:05:10;;;;;;;36.40;19.37;;;9.50;99.90;;;;;;5054446;28;20810;-47
2022/11/26 07:07:37;;;;;;;37.33;18.93;;;9.50;99.90;;;;;;5054471;28;20427;-48
2022/11/26 07:10:05;;;;;;;31.40;17.10;;;9.60;99.90;;;;;;5053709;28;20450;-47
2022/11/26 07:12:31;;;;;;;30.80;18.87;;;9.40;99.90;;;;;;5054254;28;20865;-48
2022/11/26 07:14:58;;;;;;;31.77;17.80;;;9.00;99.90;;;;;;5054217;28;20443;-47
2022/11/26 07:17:25;;;;;;;40.57;20.40;;;9.80;99.90;;;;;;5054240;28;21067;-47
2022/11/26 07:19:52;;;;;;;36.47;18.20;;;9.10;99.90;;;;;;5053234;28;20485;-48
2022/11/26 07:22:19;;;;;;;42.23;20.50;;;8.90;99.90;;;;;;5054111;28;20968;-48
2022/11/26 07:24:46;;;;;;;32.80;18.40;;;9.60;99.90;;;;;;5054116;28;20435;-47
2022/11/26 07:27:12;;;;;;;42.33;18.60;;;9.60;99.90;;;;;;5054007;28;20768;-47
2022/11/26 07:29:39;;;;;;;39.10;17.70;;;9.00;99.90;;;;;;5053628;28;20497;-47
2022/11/26 07:32:05;;;;;;;33.33;18.13;;;9.60;99.90;;;;;;5053884;28;20937;-48
2022/11/26 07:34:32;;;;;;;40.93;17.43;;;9.50;99.90;;;;;;5053545;28;20413;-47
2022/11/26 07:37:01;;;;;;;42.00;18.00;;;9.60;99.90;;;;;;5053765;28;20988;-47
2022/11/26 07:39:27;;;;;;;36.90;16.00;;;9.50;99.90;;;;;;5053006;28;20478;-47
2022/11/26 07:41:54;;;;;;;30.53;16.93;;;9.30;99.90;;;;;;5053759;28;20477;-46
2022/11/26 07:44:20;;;;;;;26.83;16.00;;;9.40;99.90;;;;;;5036065;28;20417;-46
2022/11/26 07:46:47;;;;;;;39.80;16.63;;;8.90;99.90;;;;;;5053670;28;20401;-47
2022/11/26 07:49:13;;;;;;;26.40;15.87;;;9.60;99.90;;;;;;5052932;28;20401;-48
2022/11/26 07:51:40;;;;;;;34.70;18.07;;;9.90;99.90;;;;;;5053973;28;20433;-48
2022/11/26 07:54:08;;;;;;;36.27;17.00;;;9.40;99.90;;;;;;5054120;28;20478;-47
2022/11/26 07:56:36;;;;;;;37.20;17.20;;;9.60;99.90;;;;;;5053902;28;20810;-46
2022/11/26 07:59:02;;;;;;;42.67;17.53;;;9.00;99.90;;;;;;5052974;28;20481;-47
2022/11/26 08:01:29;;;;;;;34.30;18.00;;;9.70;99.90;;;;;;5053362;28;20428;-48
2022/11/26 08:03:58;;;;;;;47.57;20.90;;;9.90;99.90;;;;;;5035318;28;20451;-47
2022/11/26 08:06:26;;;;;;;29.17;16.90;;;9.90;99.90;;;;;;5053096;28;20454;-47
2022/11/26 08:08:53;;;;;;;32.20;15.53;;;9.80;99.90;;;;;;5052902;28;20521;-47
2022/11/26 08:11:22;;;;;;;37.40;15.73;;;9.50;99.90;;;;;;5052940;28;21021;-47
2022/11/26 08:13:53;;;;;;;27.93;14.87;;;9.80;99.90;;;;;;5053298;28;20450;-47
2022/11/26 08:16:20;;;;;;;35.87;15.50;;;9.10;99.90;;;;;;5035196;28;20427;-47
2022/11/26 08:18:46;;;;;;;31.27;17.63;;;9.70;99.90;;;;;;5052225;28;20435;-48
2022/11/26 08:21:13;;;;;;;31.43;19.40;;;9.50;99.90;;;;;;5053232;28;20485;-46
2022/11/26 08:23:40;;;;;;;31.77;16.47;;;10.30;99.90;;;;;;5053039;28;20923;-48
2022/11/26 08:26:08;;;;;;;24.70;15.17;;;9.50;99.90;;;;;;5052991;28;20438;-48
2022/11/26 08:28:36;;;;;;;36.70;14.53;;;9.70;99.90;;;;;;5052191;28;20770;-46
2022/11/26 08:31:04;;;;;;;39.40;15.43;;;9.70;99.90;;;;;;5053012;28;20560;-48
2022/11/26 08:33:30;;;;;;;29.70;14.03;;;9.70;99.90;;;;;;5052654;28;20435;-47
2022/11/26 08:35:57;;;;;;;27.70;13.40;;;9.90;99.90;;;;;;5052989;28;20918;-47
2022/11/26 08:38:24;;;;;;;28.10;14.27;;;10.00;99.90;;;;;;5052122;28;20438;-47
2022/11/26 08:40:51;;;;;;;30.60;15.50;;;9.90;99.90;;;;;;5034381;28;20998;-47
2022/11/26 08:43:17;;;;;;;31.13;14.73;;;10.40;99.90;;;;;;5052596;28;20442;-47
2022/11/26 08:45:52;;;;;;;31.63;14.90;;;9.90;99.90;;;;;;5052599;28;20913;-48
2022/11/26 08:48:19;;;;;;;23.60;14.13;;;10.00;99.90;;;;;;5052502;28;20434;-47
2022/11/26 08:50:46;;;;;;;30.20;13.27;;;9.70;99.90;;;;;;5052038;28;20427;-48
2022/11/26 08:53:12;;;;;;;25.13;14.20;;;10.10;99.90;;;;;;5052215;28;20518;-47
2022/11/26 08:55:39;;;;;;;36.70;13.50;;;10.00;99.90;;;;;;5052402;28;20807;-47
2022/11/26 08:58:05;;;;;;;24.43;15.27;;;9.60;99.90;;;;;;5052248;28;20434;-48
2022/11/26 09:00:32;;;;;;;30.47;15.17;;;9.80;99.90;;;;;;5033377;28;20479;-48
2022/11/26 09:03:00;;;;;;;29.00;14.53;;;10.10;99.90;;;;;;5052058;28;20435;-47
2022/11/26 09:05:27;;;;;;;33.33;16.47;;;9.80;99.90;;;;;;5052249;28;20449;-47
2022/11/26 09:07:54;;;;;;;31.50;14.63;;;9.90;99.90;;;;;;5052184;28;20526;-46
2022/11/26 09:10:21;;;;;;;23.47;12.47;;;10.00;99.90;;;;;;5052304;28;20453;-47
2022/11/26 09:12:47;;;;;;;31.43;13.30;;;9.90;99.90;;;;;;5052168;28;20455;-46
2022/11/26 09:15:15;;;;;;;27.33;15.10;;;9.90;99.90;;;;;;5052250;28;20442;-46
2022/11/26 09:17:41;;;;;;;24.77;13.13;;;10.20;99.90;;;;;;5051740;28;20434;-48
2022/11/26 09:20:11;;;;;;;34.60;15.30;;;10.30;99.90;;;;;;5051495;28;20482;-47
2022/11/26 09:22:38;;;;;;;31.00;15.60;;;10.10;99.90;;;;;;5052045;28;20490;-47
2022/11/26 09:25:05;;;;;;;35.73;14.60;;;10.30;99.90;;;;;;5034018;28;20527;-47
2022/11/26 09:27:32;;;;;;;26.37;13.23;;;10.10;99.90;;;;;;5051721;28;20438;-47
2022/11/26 09:29:58;;;;;;;23.53;12.13;;;10.10;99.90;;;;;;5050729;28;20416;-48
2022/11/26 09:32:25;;;;;;;26.23;12.80;;;9.90;99.90;;;;;;5051988;28;20455;-48
2022/11/26 09:34:52;;;;;;;34.17;14.03;;;10.30;99.90;;;;;;5051792;28;20413;-49
2022/11/26 09:37:20;;;;;;;34.27;16.17;;;10.10;99.90;;;;;;5051644;28;20435;-47
2022/11/26 09:39:46;;;;;;;30.47;13.17;;;10.20;99.90;;;;;;5051077;28;20569;-47
2022/11/26 09:42:23;;;;;;;25.47;12.80;;;10.20;99.90;;;;;;5051899;28;20675;-48
2022/11/26 09:45:08;;;;;;;26.03;10.20;;;10.30;99.90;;;;;;5051673;28;20445;-48
2022/11/26 09:47:39;;;;;;;27.13;10.23;;;10.10;99.90;;;;;;5052031;28;20796;-48
2022/11/26 09:50:18;;;;;;;18.23;9.30;;;10.10;99.90;;;;;;5050775;28;20439;-47
2022/11/26 09:52:52;;;;;;;20.27;10.40;;;10.00;99.90;;;;;;5051180;28;20420;-47
2022/11/26 09:55:21;;;;;;;27.10;10.70;;;10.00;99.90;;;;;;5051496;28;20438;-46
2022/11/26 09:57:55;;;;;;;28.70;13.50;;;10.00;99.90;;;;;;5051759;28;20447;-48
2022/11/26 10:00:25;;;;;;;20.93;10.53;;;9.90;99.90;;;;;;5054662;28;20466;-48
2022/11/26 10:02:53;;;;;;;20.53;10.50;;;9.90;99.90;;;;;;5037766;28;20466;-48
2022/11/26 10:05:22;;;;;;;22.43;10.23;;;10.30;99.90;;;;;;5055520;28;20480;-46
2022/11/26 10:08:00;;;;;;;25.57;10.93;;;10.50;99.90;;;;;;5055593;28;20427;-48
2022/11/26 10:10:34;;;;;;;26.00;13.13;;;9.80;99.90;;;;;;5054857;28;20465;-47
2022/11/26 10:13:08;;;;;;;28.93;14.10;;;9.90;99.90;;;;;;5055419;28;20521;-48
2022/11/26 10:15:39;;;;;;;22.00;12.00;;;10.20;99.90;;;;;;5055886;28;20468;-47
2022/11/26 10:18:17;;;;;;;19.60;11.67;;;9.90;99.90;;;;;;5055927;28;20426;-48
2022/11/26 10:21:03;;;;;;;25.83;11.33;;;10.10;99.90;;;;;;5055455;28;20473;-49
2022/11/26 10:23:37;;;;;;;27.93;11.23;;;10.10;99.90;;;;;;5055367;28;20458;-46
2022/11/26 10:26:15;;;;;;;24.60;10.37;;;10.40;99.90;;;;;;5036983;28;20904;-47
2022/11/26 10:28:45;;;;;;;31.37;11.00;;;9.80;99.90;;;;;;5036736;28;20417;-49
2022/11/26 10:31:18;;;;;;;21.00;10.50;;;10.00;99.90;;;;;;5055047;28;20562;-47
2022/11/26 10:33:52;;;;;;;19.00;9.80;;;10.00;99.90;;;;;;5054885;28;20441;-46
2022/11/26 10:36:24;;;;;;;24.30;9.43;;;10.00;99.90;;;;;;5054788;28;20931;-47
2022/11/26 10:38:54;;;;;;;16.07;8.00;;;10.10;99.90;;;;;;5053979;28;20434;-47
2022/11/26 10:41:22;;;;;;;15.17;7.13;;;9.80;99.90;;;;;;5084083;22;20546;-50
2022/11/26 10:43:49;;;;;;;24.60;8.53;;;10.20;99.90;;;;;;5074379;28;20422;-51
2022/11/26 10:46:32;;;;;;;21.60;8.83;;;9.90;99.90;;;;;;5074384;28;20439;-51
2022/11/26 10:49:16;;;;;;;16.63;8.07;;;10.10;99.90;;;;;;5073853;28;20412;-52
2022/11/26 10:51:47;;;;;;;22.97;7.40;;;10.00;99.90;;;;;;5074551;28;20456;-51
2022/11/26 10:54:24;;;;;;;19.03;8.53;;;10.30;99.90;;;;;;5074480;28;20513;-51
2022/11/26 10:56:52;;;;;;;12.03;7.20;;;10.30;99.90;;;;;;5073970;28;20517;-51
2022/11/26 10:59:24;;;;;;;20.47;7.73;;;10.30;99.90;;;;;;5073306;28;20440;-51
2022/11/26 11:01:52;;;;;;;17.13;7.00;;;9.90;99.90;;;;;;5074293;28;20500;-52
2022/11/26 11:04:27;;;;;;;17.40;7.17;;;10.30;99.90;;;;;;5074462;28;20472;-51
2022/11/26 11:06:53;;;;;;;13.70;6.00;;;10.20;99.90;;;;;;5074439;28;20433;-52
2022/11/26 11:09:32;;;;;;;22.40;9.70;;;10.60;99.90;;;;;;5073397;28;20461;-51
2022/11/26 11:12:17;;;;;;;14.70;8.20;;;10.00;99.90;;;;;;5074116;28;20453;-51
2022/11/26 11:14:45;;;;;;;13.17;6.57;;;10.40;99.90;;;;;;5074249;28;20437;-50
2022/11/26 11:17:30;;;;;;;20.70;7.60;;;10.10;99.90;;;;;;5074216;28;20438;-51
2022/11/26 11:19:57;;;;;;;24.03;10.20;;;10.30;99.90;;;;;;5073124;28;20435;-51
2022/11/26 11:22:24;;;;;;;18.23;9.13;;;10.60;99.90;;;;;;5074057;28;20473;-50
2022/11/26 11:24:53;;;;;;;17.87;7.40;;;10.30;99.90;;;;;;5073941;28;20787;-51
2022/11/26 11:27:25;;;;;;;16.03;7.87;;;10.20;99.90;;;;;;5073750;28;20786;-51
2022/11/26 11:29:53;;;;;;;17.90;8.20;;;10.10;99.90;;;;;;5055200;28;20812;-51
2022/11/26 11:32:37;;;;;;;21.13;9.57;;;10.30;99.90;;;;;;5073371;28;20457;-51
2022/11/26 11:35:22;;;;;;;16.97;8.20;;;10.40;99.90;;;;;;5073548;28;20416;-51
2022/11/26 11:37:49;;;;;;;18.73;8.87;;;10.80;99.90;;;;;;5073583;28;20533;-51
2022/11/26 11:40:24;;;;;;;18.47;8.00;;;10.60;99.90;;;;;;5072526;28;20478;-51
2022/11/26 11:42:54;;;;;;;19.57;7.63;;;10.60;99.90;;;;;;5073053;28;20817;-52
2022/11/26 11:45:27;;;;;;;17.50;7.53;;;10.50;99.90;;;;;;5072963;28;20769;-52
2022/11/26 11:47:58;;;;;;;17.30;7.17;;;11.10;99.90;;;;;;5073749;28;20411;-51
2022/11/26 11:50:32;;;;;;;13.07;6.77;;;10.50;99.90;;;;;;5072706;28;20458;-51
2022/11/26 11:53:09;;;;;;;17.20;7.37;;;10.40;99.90;;;;;;5072993;28;20749;-51
2022/11/26 11:55:50;;;;;;;15.30;7.40;;;10.20;99.90;;;;;;5072855;28;20425;-51
2022/11/26 11:58:37;;;;;;;15.23;8.13;;;10.60;99.90;;;;;;5072502;28;20769;-52
2022/11/26 12:01:13;;;;;;;15.70;7.57;;;10.80;99.90;;;;;;5073063;28;20481;-52
2022/11/26 12:04:02;;;;;;;12.70;6.77;;;10.40;99.90;;;;;;5072692;28;20441;-51
2022/11/26 12:06:39;;;;;;;21.70;8.87;;;10.50;99.90;;;;;;5073130;28;20840;-51
2022/11/26 12:09:15;;;;;;;18.00;8.47;;;10.20;99.90;;;;;;5072331;28;20941;-51
2022/11/26 12:11:53;;;;;;;16.03;8.00;;;10.60;99.90;;;;;;5054697;28;20574;-51
2022/11/26 12:14:23;;;;;;;15.33;8.27;;;10.40;99.90;;;;;;5072597;28;20441;-52
2022/11/26 12:16:52;;;;;;;12.40;6.97;;;10.50;99.90;;;;;;5073028;28;20443;-52
2022/11/26 12:19:37;;;;;;;20.93;7.60;;;10.30;99.90;;;;;;5071702;28;20450;-52
2022/11/26 12:22:10;;;;;;;16.63;8.40;;;11.00;99.90;;;;;;5071205;28;20491;-51
2022/11/26 12:24:44;;;;;;;13.60;7.90;;;10.00;99.90;;;;;;5072335;28;20435;-51
2022/11/26 12:27:25;;;;;;;19.30;8.20;;;10.40;99.90;;;;;;5072179;28;20409;-51
2022/11/26 12:29:55;;;;;;;19.33;8.60;;;10.60;99.90;;;;;;5072198;28;20460;-51
2022/11/26 12:32:27;;;;;;;22.23;9.37;;;11.10;99.90;;;;;;5072338;28;20459;-50
2022/11/26 12:34:58;;;;;;;23.37;10.87;;;11.00;99.90;;;;;;5072672;28;20418;-51
2022/11/26 12:37:30;;;;;;;21.30;8.70;;;10.80;99.90;;;;;;5072132;28;20533;-51
2022/11/26 12:40:00;;;;;;;13.30;9.30;;;11.00;99.90;;;;;;5071509;28;20430;-51
2022/11/26 12:42:34;;;;;;;15.17;8.53;;;10.80;99.90;;;;;;5071459;28;20485;-51
2022/11/26 12:45:12;;;;;;;19.17;8.57;;;10.70;99.90;;;;;;5072381;28;20434;-51
2022/11/26 12:47:46;;;;;;;19.77;9.13;;;10.50;99.90;;;;;;5071923;28;20500;-51
2022/11/26 12:50:18;;;;;;;22.27;9.40;;;11.30;99.90;;;;;;5071578;28;20408;-51